sensor_id;sensor_type;location;lat;lon;timestamp;pressure;altitude;pressure_sealevel;temperature
64296;BMP280;51082;38.236;15.432;2023-12-20T00:00:57;101864.50;;;16.28
64296;BMP280;51082;38.236;15.432;2023-12-20T00:01:58;101860.03;;;16.28
64296;BMP280;51082;38.236;15.432;2023-12-20T00:03:00;101849.50;;;16.21
64296;BMP280;51082;38.236;15.432;2023-12-20T00:04:02;101861.06;;;16.27
64296;BMP280;51082;38.236;15.432;2023-12-20T00:05:05;101849.13;;;16.25
64296;BMP280;51082;38.236;15.432;2023-12-20T00:06:08;101849.50;;;16.21
64296;BMP280;51082;38.236;15.432;2023-12-20T00:07:09;101848.50;;;16.22
64296;BMP280;51082;38.236;15.432;2023-12-20T00:08:12;101851.16;;;16.22
64296;BMP280;51082;38.236;15.432;2023-12-20T00:09:13;101843.88;;;16.25
64296;BMP280;51082;38.236;15.432;2023-12-20T00:10:16;101843.47;;;16.28
64296;BMP280;51082;38.236;15.432;2023-12-20T00:11:17;101841.81;;;16.27
64296;BMP280;51082;38.236;15.432;2023-12-20T00:12:20;101836.56;;;16.27
64296;BMP280;51082;38.236;15.432;2023-12-20T00:13:21;101833.94;;;16.27
64296;BMP280;51082;38.236;15.432;2023-12-20T00:14:23;101838.41;;;16.26
64296;BMP280;51082;38.236;15.432;2023-12-20T00:15:26;101826.06;;;16.27
64296;BMP280;51082;38.236;15.432;2023-12-20T00:16:29;101835.97;;;16.25
64296;BMP280;51082;38.236;15.432;2023-12-20T00:17:30;101833.38;;;16.25
64296;BMP280;51082;38.236;15.432;2023-12-20T00:18:33;101827.28;;;16.24
64296;BMP280;51082;38.236;15.432;2023-12-20T00:19:34;101835.97;;;16.25
64296;BMP280;51082;38.236;15.432;2023-12-20T00:20:37;101824.88;;;16.22
64296;BMP280;51082;38.236;15.432;2023-12-20T00:21:38;101826.50;;;16.23
64296;BMP280;51082;38.236;15.432;2023-12-20T00:22:41;101831.75;;;16.23
64296;BMP280;51082;38.236;15.432;2023-12-20T00:23:42;101823.84;;;16.23
64296;BMP280;51082;38.236;15.432;2023-12-20T00:24:45;101824.03;;;16.22
64296;BMP280;51082;38.236;15.432;2023-12-20T00:25:46;101824.03;;;16.22
64296;BMP280;51082;38.236;15.432;2023-12-20T00:26:49;101819.63;;;16.22
64296;BMP280;51082;38.236;15.432;2023-12-20T00:27:50;101819.63;;;16.22
64296;BMP280;51082;38.236;15.432;2023-12-20T00:28:51;101821.41;;;16.22
64296;BMP280;51082;38.236;15.432;2023-12-20T00:29:54;101815.97;;;16.23
64296;BMP280;51082;38.236;15.432;2023-12-20T00:30:57;101821.22;;;16.23
64296;BMP280;51082;38.236;15.432;2023-12-20T00:31:58;101817.00;;;16.22
64296;BMP280;51082;38.236;15.432;2023-12-20T00:33:01;101819.63;;;16.22
64296;BMP280;51082;38.236;15.432;2023-12-20T00:34:03;101819.63;;;16.22
64296;BMP280;51082;38.236;15.432;2023-12-20T00:35:06;101822.03;;;16.24
64296;BMP280;51082;38.236;15.432;2023-12-20T00:36:07;101809.91;;;16.23
64296;BMP280;51082;38.236;15.432;2023-12-20T00:37:09;101815.97;;;16.23
64296;BMP280;51082;38.236;15.432;2023-12-20T00:38:12;101814.97;;;16.25
64296;BMP280;51082;38.236;15.432;2023-12-20T00:39:13;101805.03;;;16.27
64296;BMP280;51082;38.236;15.432;2023-12-20T00:40:14;101805.03;;;16.27
64296;BMP280;51082;38.236;15.432;2023-12-20T00:41:17;101801.41;;;16.21
64296;BMP280;51082;38.236;15.432;2023-12-20T00:42:19;101813.16;;;16.25
64296;BMP280;51082;38.236;15.432;2023-12-20T00:43:21;101803.84;;;16.22
64296;BMP280;51082;38.236;15.432;2023-12-20T00:44:23;101808.09;;;16.23
64296;BMP280;51082;38.236;15.432;2023-12-20T00:45:25;101797.59;;;16.23
64296;BMP280;51082;38.236;15.432;2023-12-20T00:46:28;101807.09;;;16.25
64296;BMP280;51082;38.236;15.432;2023-12-20T00:47:31;101802.84;;;16.23
64296;BMP280;51082;38.236;15.432;2023-12-20T00:48:32;101800.22;;;16.23
64296;BMP280;51082;38.236;15.432;2023-12-20T00:49:35;101799.41;;;16.23
64296;BMP280;51082;38.236;15.432;2023-12-20T00:50:36;101799.19;;;16.25
64296;BMP280;51082;38.236;15.432;2023-12-20T00:51:39;101801.81;;;16.25
64296;BMP280;51082;38.236;15.432;2023-12-20T00:52:40;101802.84;;;16.23
64296;BMP280;51082;38.236;15.432;2023-12-20T00:53:43;101801.22;;;16.22
64296;BMP280;51082;38.236;15.432;2023-12-20T00:54:45;101800.22;;;16.23
64296;BMP280;51082;38.236;15.432;2023-12-20T00:55:47;101796.94;;;16.21
64296;BMP280;51082;38.236;15.432;2023-12-20T00:56:49;101801.22;;;16.22
64296;BMP280;51082;38.236;15.432;2023-12-20T00:57:52;101798.59;;;16.22
64296;BMP280;51082;38.236;15.432;2023-12-20T00:58:54;101800.63;;;16.20
64296;BMP280;51082;38.236;15.432;2023-12-20T00:59:56;101798.59;;;16.22
64296;BMP280;51082;38.236;15.432;2023-12-20T01:00:58;101792.72;;;16.20
64296;BMP280;51082;38.236;15.432;2023-12-20T01:02:02;101790.09;;;16.20
64296;BMP280;51082;38.236;15.432;2023-12-20T01:03:04;101798.78;;;16.21
64296;BMP280;51082;38.236;15.432;2023-12-20T01:04:06;101790.09;;;16.20
64296;BMP280;51082;38.236;15.432;2023-12-20T01:05:08;101784.84;;;16.20
64296;BMP280;51082;38.236;15.432;2023-12-20T01:06:10;101781.41;;;16.20
64296;BMP280;51082;38.236;15.432;2023-12-20T01:07:12;101789.88;;;16.22
64296;BMP280;51082;38.236;15.432;2023-12-20T01:08:13;101792.72;;;16.20
64296;BMP280;51082;38.236;15.432;2023-12-20T01:09:16;101788.09;;;16.22
64296;BMP280;51082;38.236;15.432;2023-12-20T01:10:17;101792.50;;;16.22
64296;BMP280;51082;38.236;15.432;2023-12-20T01:11:19;101782.00;;;16.22
64296;BMP280;51082;38.236;15.432;2023-12-20T01:12:23;101788.09;;;16.22
64296;BMP280;51082;38.236;15.432;2023-12-20T01:13:24;101782.84;;;16.22
64296;BMP280;51082;38.236;15.432;2023-12-20T01:14:25;101787.25;;;16.22
64296;BMP280;51082;38.236;15.432;2023-12-20T01:15:28;101793.34;;;16.22
64296;BMP280;51082;38.236;15.432;2023-12-20T01:16:29;101789.06;;;16.21
64296;BMP280;51082;38.236;15.432;2023-12-20T01:17:33;101791.69;;;16.21
64296;BMP280;51082;38.236;15.432;2023-12-20T01:18:35;101792.13;;;16.18
64296;BMP280;51082;38.236;15.432;2023-12-20T01:19:37;101787.28;;;16.15
64296;BMP280;51082;38.236;15.432;2023-12-20T01:20:39;101787.69;;;16.19
64296;BMP280;51082;38.236;15.432;2023-12-20T01:21:41;101783.59;;;16.16
64296;BMP280;51082;38.236;15.432;2023-12-20T01:22:43;101779.59;;;16.14
64296;BMP280;51082;38.236;15.432;2023-12-20T01:23:47;101779.59;;;16.14
64296;BMP280;51082;38.236;15.432;2023-12-20T01:24:48;101792.09;;;16.12
64296;BMP280;51082;38.236;15.432;2023-12-20T01:25:51;101780.56;;;16.13
64296;BMP280;51082;38.236;15.432;2023-12-20T01:26:52;101781.38;;;16.13
64296;BMP280;51082;38.236;15.432;2023-12-20T01:27:55;101779.97;;;16.17
64296;BMP280;51082;38.236;15.432;2023-12-20T01:28:56;101780.41;;;16.14
64296;BMP280;51082;38.236;15.432;2023-12-20T01:29:59;101777.78;;;16.14
64296;BMP280;51082;38.236;15.432;2023-12-20T01:31:00;101774.72;;;16.17
64296;BMP280;51082;38.236;15.432;2023-12-20T01:32:01;101774.72;;;16.17
64296;BMP280;51082;38.236;15.432;2023-12-20T01:33:05;101771.88;;;16.12
64296;BMP280;51082;38.236;15.432;2023-12-20T01:34:07;101768.03;;;16.08
64296;BMP280;51082;38.236;15.432;2023-12-20T01:35:09;101760.16;;;16.08
64296;BMP280;51082;38.236;15.432;2023-12-20T01:36:13;101766.63;;;16.12
64296;BMP280;51082;38.236;15.432;2023-12-20T01:37:16;101745.22;;;16.02
64296;BMP280;51082;38.236;15.432;2023-12-20T01:38:17;101767.06;;;16.09
64296;BMP280;51082;38.236;15.432;2023-12-20T01:39:21;101763.59;;;16.09
64296;BMP280;51082;38.236;15.432;2023-12-20T01:40:22;101755.31;;;16.12
64296;BMP280;51082;38.236;15.432;2023-12-20T01:41:25;101750.28;;;16.10
64296;BMP280;51082;38.236;15.432;2023-12-20T01:42:26;101747.25;;;16.13
64296;BMP280;51082;38.236;15.432;2023-12-20T01:43:29;101752.09;;;16.16
64296;BMP280;51082;38.236;15.432;2023-12-20T01:44:31;101746.84;;;16.16
64296;BMP280;51082;38.236;15.432;2023-12-20T01:45:33;101742.22;;;16.18
64296;BMP280;51082;38.236;15.432;2023-12-20T01:46:35;101739.75;;;16.17
64296;BMP280;51082;38.236;15.432;2023-12-20T01:47:37;101743.19;;;16.17
64296;BMP280;51082;38.236;15.432;2023-12-20T01:48:40;101738.78;;;16.18
64296;BMP280;51082;38.236;15.432;2023-12-20T01:49:43;101744.84;;;16.18
64296;BMP280;51082;38.236;15.432;2023-12-20T01:50:45;101743.19;;;16.17
64296;BMP280;51082;38.236;15.432;2023-12-20T01:51:48;101745.25;;;16.15
64296;BMP280;51082;38.236;15.432;2023-12-20T01:52:50;101741.56;;;16.16
64296;BMP280;51082;38.236;15.432;2023-12-20T01:53:54;101737.38;;;16.15
64296;BMP280;51082;38.236;15.432;2023-12-20T01:54:56;101738.38;;;16.14
64296;BMP280;51082;38.236;15.432;2023-12-20T01:56:04;101738.94;;;16.16
64296;BMP280;51082;38.236;15.432;2023-12-20T01:57:06;101740.78;;;16.16
64296;BMP280;51082;38.236;15.432;2023-12-20T01:58:09;101734.50;;;16.17
64296;BMP280;51082;38.236;15.432;2023-12-20T01:59:12;101731.06;;;16.16
64296;BMP280;51082;38.236;15.432;2023-12-20T02:00:15;101732.13;;;16.15
64296;BMP280;51082;38.236;15.432;2023-12-20T02:01:16;101737.13;;;16.17
64296;BMP280;51082;38.236;15.432;2023-12-20T02:02:18;101744.22;;;16.16
64296;BMP280;51082;38.236;15.432;2023-12-20T02:03:21;101733.13;;;16.14
64296;BMP280;51082;38.236;15.432;2023-12-20T02:04:24;101728.69;;;16.15
64296;BMP280;51082;38.236;15.432;2023-12-20T02:05:27;101725.41;;;16.06
64296;BMP280;51082;38.236;15.432;2023-12-20T02:06:30;101729.47;;;16.15
64296;BMP280;51082;38.236;15.432;2023-12-20T02:07:33;101727.88;;;16.14
64296;BMP280;51082;38.236;15.432;2023-12-20T02:08:36;101721.59;;;16.15
64296;BMP280;51082;38.236;15.432;2023-12-20T02:09:39;101728.44;;;16.16
64296;BMP280;51082;38.236;15.432;2023-12-20T02:10:41;101722.63;;;16.14
64296;BMP280;51082;38.236;15.432;2023-12-20T02:11:44;101713.94;;;16.14
64296;BMP280;51082;38.236;15.432;2023-12-20T02:12:45;101720.97;;;16.13
64296;BMP280;51082;38.236;15.432;2023-12-20T02:13:48;101716.34;;;16.15
64296;BMP280;51082;38.236;15.432;2023-12-20T02:14:49;101724.22;;;16.15
64296;BMP280;51082;38.236;15.432;2023-12-20T02:15:51;101713.72;;;16.15
64296;BMP280;51082;38.236;15.432;2023-12-20T02:16:53;101704.84;;;16.10
64296;BMP280;51082;38.236;15.432;2023-12-20T02:17:55;101708.66;;;16.14
64296;BMP280;51082;38.236;15.432;2023-12-20T02:18:57;101708.84;;;16.12
64296;BMP280;51082;38.236;15.432;2023-12-20T02:20:01;101710.66;;;16.12
64296;BMP280;51082;38.236;15.432;2023-12-20T02:21:04;101708.03;;;16.12
64296;BMP280;51082;38.236;15.432;2023-12-20T02:22:09;101705.41;;;16.12
64296;BMP280;51082;38.236;15.432;2023-12-20T02:23:10;101700.97;;;16.12
64296;BMP280;51082;38.236;15.432;2023-12-20T02:24:13;101706.22;;;16.12
64296;BMP280;51082;38.236;15.432;2023-12-20T02:25:15;101703.59;;;16.12
64296;BMP280;51082;38.236;15.432;2023-12-20T02:26:17;101694.09;;;16.11
64296;BMP280;51082;38.236;15.432;2023-12-20T02:27:19;101695.91;;;16.11
64296;BMP280;51082;38.236;15.432;2023-12-20T02:28:21;101697.13;;;16.08
64296;BMP280;51082;38.236;15.432;2023-12-20T02:29:24;101686.63;;;16.08
64296;BMP280;51082;38.236;15.432;2023-12-20T02:30:26;101690.91;;;16.09
64296;BMP280;51082;38.236;15.432;2023-12-20T02:31:28;101688.44;;;16.08
64296;BMP280;51082;38.236;15.432;2023-12-20T02:32:30;101692.47;;;16.10
64296;BMP280;51082;38.236;15.432;2023-12-20T02:33:31;101681.97;;;16.10
64296;BMP280;51082;38.236;15.432;2023-12-20T02:34:34;101679.34;;;16.10
64296;BMP280;51082;38.236;15.432;2023-12-20T02:35:35;101678.75;;;16.08
64296;BMP280;51082;38.236;15.432;2023-12-20T02:36:38;101678.56;;;16.10
64296;BMP280;51082;38.236;15.432;2023-12-20T02:37:41;101679.53;;;16.09
64296;BMP280;51082;38.236;15.432;2023-12-20T02:38:43;101680.97;;;16.11
64296;BMP280;51082;38.236;15.432;2023-12-20T02:39:45;101676.50;;;16.12
64296;BMP280;51082;38.236;15.432;2023-12-20T02:40:46;101679.34;;;16.10
64296;BMP280;51082;38.236;15.432;2023-12-20T02:41:49;101677.31;;;16.12
64296;BMP280;51082;38.236;15.432;2023-12-20T02:42:50;101678.94;;;16.13
64296;BMP280;51082;38.236;15.432;2023-12-20T02:43:53;101673.69;;;16.13
64296;BMP280;51082;38.236;15.432;2023-12-20T02:44:54;101675.34;;;16.14
64296;BMP280;51082;38.236;15.432;2023-12-20T02:45:57;101677.16;;;16.14
64296;BMP280;51082;38.236;15.432;2023-12-20T02:46:58;101672.06;;;16.12
64296;BMP280;51082;38.236;15.432;2023-12-20T02:48:02;101670.25;;;16.13
64296;BMP280;51082;38.236;15.432;2023-12-20T02:49:03;101673.69;;;16.13
64296;BMP280;51082;38.236;15.432;2023-12-20T02:50:05;101666.00;;;16.12
64296;BMP280;51082;38.236;15.432;2023-12-20T02:51:08;101649.44;;;16.05
64296;BMP280;51082;38.236;15.432;2023-12-20T02:52:09;101663.38;;;16.12
64296;BMP280;51082;38.236;15.432;2023-12-20T02:53:13;101663.19;;;16.13
64296;BMP280;51082;38.236;15.432;2023-12-20T02:54:15;101666.00;;;16.12
64296;BMP280;51082;38.236;15.432;2023-12-20T02:55:16;101663.19;;;16.13
64296;BMP280;51082;38.236;15.432;2023-12-20T02:56:19;101659.56;;;16.14
64296;BMP280;51082;38.236;15.432;2023-12-20T02:57:20;101656.13;;;16.14
64296;BMP280;51082;38.236;15.432;2023-12-20T02:58:23;101661.56;;;16.12
64296;BMP280;51082;38.236;15.432;2023-12-20T02:59:24;101660.94;;;16.17
64296;BMP280;51082;38.236;15.432;2023-12-20T03:00:27;101660.13;;;16.16
64296;BMP280;51082;38.236;15.432;2023-12-20T03:01:29;101658.31;;;16.17
64296;BMP280;51082;38.236;15.432;2023-12-20T03:02:31;101659.13;;;16.17
64296;BMP280;51082;38.236;15.432;2023-12-20T03:03:33;101659.56;;;16.14
64296;BMP280;51082;38.236;15.432;2023-12-20T03:04:35;101658.56;;;16.15
64296;BMP280;51082;38.236;15.432;2023-12-20T03:05:37;101654.31;;;16.14
64296;BMP280;51082;38.236;15.432;2023-12-20T03:06:38;101651.88;;;16.13
64296;BMP280;51082;38.236;15.432;2023-12-20T03:07:41;101649.88;;;16.15
64296;BMP280;51082;38.236;15.432;2023-12-20T03:08:44;101654.31;;;16.14
64296;BMP280;51082;38.236;15.432;2023-12-20T03:09:46;101653.50;;;16.14
64296;BMP280;51082;38.236;15.432;2023-12-20T03:10:48;101651.69;;;16.14
64296;BMP280;51082;38.236;15.432;2023-12-20T03:11:50;101652.66;;;16.13
64296;BMP280;51082;38.236;15.432;2023-12-20T03:12:52;101646.00;;;16.11
64296;BMP280;51082;38.236;15.432;2023-12-20T03:13:54;101651.06;;;16.12
64296;BMP280;51082;38.236;15.432;2023-12-20T03:14:56;101652.66;;;16.13
64296;BMP280;51082;38.236;15.432;2023-12-20T03:15:58;101651.06;;;16.12
64296;BMP280;51082;38.236;15.432;2023-12-20T03:17:00;101654.69;;;16.11
64296;BMP280;51082;38.236;15.432;2023-12-20T03:18:02;101649.25;;;16.13
64296;BMP280;51082;38.236;15.432;2023-12-20T03:19:04;101643.81;;;16.14
64296;BMP280;51082;38.236;15.432;2023-12-20T03:20:08;101637.75;;;16.14
64296;BMP280;51082;38.236;15.432;2023-12-20T03:21:09;101642.16;;;16.13
64296;BMP280;51082;38.236;15.432;2023-12-20T03:22:12;101642.16;;;16.13
64296;BMP280;51082;38.236;15.432;2023-12-20T03:23:13;101640.56;;;16.12
64296;BMP280;51082;38.236;15.432;2023-12-20T03:24:17;101636.91;;;16.13
64296;BMP280;51082;38.236;15.432;2023-12-20T03:25:18;101631.66;;;16.13
64296;BMP280;51082;38.236;15.432;2023-12-20T03:26:21;101636.91;;;16.13
64296;BMP280;51082;38.236;15.432;2023-12-20T03:27:23;101630.03;;;16.12
64296;BMP280;51082;38.236;15.432;2023-12-20T03:28:26;101638.94;;;16.11
64296;BMP280;51082;38.236;15.432;2023-12-20T03:29:27;101633.69;;;16.11
64296;BMP280;51082;38.236;15.432;2023-12-20T03:30:30;101636.09;;;16.13
64296;BMP280;51082;38.236;15.432;2023-12-20T03:31:31;101631.66;;;16.13
64296;BMP280;51082;38.236;15.432;2023-12-20T03:32:34;101625.59;;;16.13
64296;BMP280;51082;38.236;15.432;2023-12-20T03:33:35;101627.41;;;16.12
64296;BMP280;51082;38.236;15.432;2023-12-20T03:34:37;101617.91;;;16.11
64296;BMP280;51082;38.236;15.432;2023-12-20T03:35:39;101628.44;;;16.11
64296;BMP280;51082;38.236;15.432;2023-12-20T03:36:41;101620.53;;;16.11
64296;BMP280;51082;38.236;15.432;2023-12-20T03:37:43;101621.16;;;16.13
64296;BMP280;51082;38.236;15.432;2023-12-20T03:38:45;101619.53;;;16.12
64296;BMP280;51082;38.236;15.432;2023-12-20T03:39:48;101613.06;;;16.08
64296;BMP280;51082;38.236;15.432;2023-12-20T03:40:50;101617.72;;;16.13
64296;BMP280;51082;38.236;15.432;2023-12-20T03:41:52;101616.09;;;16.12
64296;BMP280;51082;38.236;15.432;2023-12-20T03:42:53;101621.34;;;16.12
64296;BMP280;51082;38.236;15.432;2023-12-20T03:43:56;101616.09;;;16.12
64296;BMP280;51082;38.236;15.432;2023-12-20T03:44:57;101614.72;;;16.09
64296;BMP280;51082;38.236;15.432;2023-12-20T03:46:00;101609.22;;;16.11
64296;BMP280;51082;38.236;15.432;2023-12-20T03:47:01;101612.47;;;16.13
64296;BMP280;51082;38.236;15.432;2023-12-20T03:48:05;101609.03;;;16.12
64296;BMP280;51082;38.236;15.432;2023-12-20T03:49:06;101601.16;;;16.12
64296;BMP280;51082;38.236;15.432;2023-12-20T03:50:09;101601.16;;;16.12
64296;BMP280;51082;38.236;15.432;2023-12-20T03:51:10;101598.72;;;16.11
64296;BMP280;51082;38.236;15.432;2023-12-20T03:52:13;101596.91;;;16.11
64296;BMP280;51082;38.236;15.432;2023-12-20T03:53:14;101594.50;;;16.10
64296;BMP280;51082;38.236;15.432;2023-12-20T03:54:16;101601.34;;;16.11
64296;BMP280;51082;38.236;15.432;2023-12-20T03:55:20;101591.91;;;16.10
64296;BMP280;51082;38.236;15.432;2023-12-20T03:56:21;101591.66;;;16.11
64296;BMP280;51082;38.236;15.432;2023-12-20T03:57:22;101592.25;;;16.13
64296;BMP280;51082;38.236;15.432;2023-12-20T03:58:25;101588.81;;;16.13
64296;BMP280;51082;38.236;15.432;2023-12-20T03:59:26;101589.03;;;16.11
64296;BMP280;51082;38.236;15.432;2023-12-20T04:00:29;101587.22;;;16.12
64296;BMP280;51082;38.236;15.432;2023-12-20T04:01:31;101588.00;;;16.12
64296;BMP280;51082;38.236;15.432;2023-12-20T04:02:33;101582.75;;;16.12
64296;BMP280;51082;38.236;15.432;2023-12-20T04:03:35;101580.94;;;16.13
64296;BMP280;51082;38.236;15.432;2023-12-20T04:04:37;101582.75;;;16.12
64296;BMP280;51082;38.236;15.432;2023-12-20T04:05:39;101582.75;;;16.12
64296;BMP280;51082;38.236;15.432;2023-12-20T04:06:41;101588.00;;;16.12
64296;BMP280;51082;38.236;15.432;2023-12-20T04:07:44;101580.75;;;16.14
64296;BMP280;51082;38.236;15.432;2023-12-20T04:08:45;101589.63;;;16.13
64296;BMP280;51082;38.236;15.432;2023-12-20T04:09:48;101580.13;;;16.12
64296;BMP280;51082;38.236;15.432;2023-12-20T04:10:51;101587.84;;;16.14
64296;BMP280;51082;38.236;15.432;2023-12-20T04:11:53;101581.97;;;16.12
64296;BMP280;51082;38.236;15.432;2023-12-20T04:12:55;101581.16;;;16.11
64296;BMP280;51082;38.236;15.432;2023-12-20T04:13:56;101581.97;;;16.12
64296;BMP280;51082;38.236;15.432;2023-12-20T04:14:58;101581.16;;;16.11
64296;BMP280;51082;38.236;15.432;2023-12-20T04:16:00;101589.03;;;16.11
64296;BMP280;51082;38.236;15.432;2023-12-20T04:17:03;101586.41;;;16.11
64296;BMP280;51082;38.236;15.432;2023-12-20T04:18:04;101582.16;;;16.10
64296;BMP280;51082;38.236;15.432;2023-12-20T04:19:07;101584.78;;;16.10
64296;BMP280;51082;38.236;15.432;2023-12-20T04:20:09;101588.47;;;16.09
64296;BMP280;51082;38.236;15.432;2023-12-20T04:21:12;101582.16;;;16.10
64296;BMP280;51082;38.236;15.432;2023-12-20T04:22:13;101580.34;;;16.11
64296;BMP280;51082;38.236;15.432;2023-12-20T04:23:16;101584.78;;;16.10
64296;BMP280;51082;38.236;15.432;2023-12-20T04:24:17;101581.56;;;16.08
64296;BMP280;51082;38.236;15.432;2023-12-20T04:25:20;101581.56;;;16.08
64296;BMP280;51082;38.236;15.432;2023-12-20T04:26:22;101583.38;;;16.08
64296;BMP280;51082;38.236;15.432;2023-12-20T04:27:25;101577.94;;;16.09
64296;BMP280;51082;38.236;15.432;2023-12-20T04:28:26;101578.34;;;16.06
64296;BMP280;51082;38.236;15.432;2023-12-20T04:29:31;101576.31;;;16.08
64296;BMP280;51082;38.236;15.432;2023-12-20T04:30:33;101565.81;;;16.08
64296;BMP280;51082;38.236;15.432;2023-12-20T04:31:36;101571.06;;;16.08
64296;BMP280;51082;38.236;15.432;2023-12-20T04:32:37;101570.25;;;16.08
64296;BMP280;51082;38.236;15.432;2023-12-20T04:33:40;101578.94;;;16.08
64296;BMP280;51082;38.236;15.432;2023-12-20T04:34:41;101566.81;;;16.07
64296;BMP280;51082;38.236;15.432;2023-12-20T04:35:43;101571.25;;;16.07
64296;BMP280;51082;38.236;15.432;2023-12-20T04:36:46;101571.25;;;16.07
64296;BMP280;51082;38.236;15.432;2023-12-20T04:37:49;101566.81;;;16.07
64296;BMP280;51082;38.236;15.432;2023-12-20T04:38:50;101577.94;;;16.09
64296;BMP280;51082;38.236;15.432;2023-12-20T04:39:53;101576.31;;;16.08
64296;BMP280;51082;38.236;15.432;2023-12-20T04:40:54;101578.13;;;16.08
64296;BMP280;51082;38.236;15.432;2023-12-20T04:41:59;101573.69;;;16.08
64296;BMP280;51082;38.236;15.432;2023-12-20T04:43:00;101572.06;;;16.07
64296;BMP280;51082;38.236;15.432;2023-12-20T04:44:03;101572.28;;;16.06
64296;BMP280;51082;38.236;15.432;2023-12-20T04:45:05;101569.22;;;16.09
64296;BMP280;51082;38.236;15.432;2023-12-20T04:46:08;101571.25;;;16.07
64296;BMP280;51082;38.236;15.432;2023-12-20T04:47:09;101570.44;;;16.06
64296;BMP280;51082;38.236;15.432;2023-12-20T04:48:12;101561.97;;;16.04
64296;BMP280;51082;38.236;15.432;2023-12-20T04:49:13;101563.38;;;16.07
64296;BMP280;51082;38.236;15.432;2023-12-20T04:50:16;101567.03;;;16.06
64296;BMP280;51082;38.236;15.432;2023-12-20T04:51:17;101573.69;;;16.08
64296;BMP280;51082;38.236;15.432;2023-12-20T04:52:20;101565.19;;;16.06
64296;BMP280;51082;38.236;15.432;2023-12-20T04:53:21;101563.78;;;16.04
64296;BMP280;51082;38.236;15.432;2023-12-20T04:54:24;101567.03;;;16.06
64296;BMP280;51082;38.236;15.432;2023-12-20T04:55:25;101567.81;;;16.06
64296;BMP280;51082;38.236;15.432;2023-12-20T04:56:28;101571.06;;;16.08
64296;BMP280;51082;38.236;15.432;2023-12-20T04:57:31;101572.06;;;16.07
64296;BMP280;51082;38.236;15.432;2023-12-20T04:58:32;101559.56;;;16.09
64296;BMP280;51082;38.236;15.432;2023-12-20T04:59:35;101564.81;;;16.09
64296;BMP280;51082;38.236;15.432;2023-12-20T05:00:36;101561.34;;;16.09
64296;BMP280;51082;38.236;15.432;2023-12-20T05:01:39;101569.03;;;16.10
64296;BMP280;51082;38.236;15.432;2023-12-20T05:02:41;101560.56;;;16.08
64296;BMP280;51082;38.236;15.432;2023-12-20T05:03:43;101562.75;;;16.11
64296;BMP280;51082;38.236;15.432;2023-12-20T05:04:45;101563.78;;;16.10
64296;BMP280;51082;38.236;15.432;2023-12-20T05:05:47;101567.44;;;16.09
64296;BMP280;51082;38.236;15.432;2023-12-20T05:06:49;101564.59;;;16.11
64296;BMP280;51082;38.236;15.432;2023-12-20T05:07:52;101563.78;;;16.10
64296;BMP280;51082;38.236;15.432;2023-12-20T05:08:53;101557.75;;;16.10
64296;BMP280;51082;38.236;15.432;2023-12-20T05:09:55;101559.31;;;16.11
64296;BMP280;51082;38.236;15.432;2023-12-20T05:10:57;101545.63;;;16.02
64296;BMP280;51082;38.236;15.432;2023-12-20T05:11:59;101563.34;;;16.13
64296;BMP280;51082;38.236;15.432;2023-12-20T05:13:03;101558.31;;;16.12
64296;BMP280;51082;38.236;15.432;2023-12-20T05:14:04;101557.50;;;16.11
64296;BMP280;51082;38.236;15.432;2023-12-20T05:15:08;101554.31;;;16.09
64296;BMP280;51082;38.236;15.432;2023-12-20T05:16:10;101556.69;;;16.11
64296;BMP280;51082;38.236;15.432;2023-12-20T05:17:15;101559.31;;;16.11
64296;BMP280;51082;38.236;15.432;2023-12-20T05:18:16;101559.31;;;16.11
64296;BMP280;51082;38.236;15.432;2023-12-20T05:19:18;101556.50;;;16.12
64296;BMP280;51082;38.236;15.432;2023-12-20T05:20:20;101548.81;;;16.11
64296;BMP280;51082;38.236;15.432;2023-12-20T05:21:21;101553.28;;;16.10
64296;BMP280;51082;38.236;15.432;2023-12-20T05:22:24;101554.88;;;16.11
64296;BMP280;51082;38.236;15.432;2023-12-20T05:23:26;101541.56;;;16.06
64296;BMP280;51082;38.236;15.432;2023-12-20T05:24:27;101546.44;;;16.09
64296;BMP280;51082;38.236;15.432;2023-12-20T05:25:29;101550.63;;;16.10
64296;BMP280;51082;38.236;15.432;2023-12-20T05:26:31;101547.00;;;16.11
64296;BMP280;51082;38.236;15.432;2023-12-20T05:27:33;101538.31;;;16.11
64296;BMP280;51082;38.236;15.432;2023-12-20T05:28:36;101548.00;;;16.10
64296;BMP280;51082;38.236;15.432;2023-12-20T05:29:39;101549.63;;;16.11
64296;BMP280;51082;38.236;15.432;2023-12-20T05:30:40;101546.00;;;16.12
64296;BMP280;51082;38.236;15.432;2023-12-20T05:31:43;101544.38;;;16.11
64296;BMP280;51082;38.236;15.432;2023-12-20T05:32:44;101544.38;;;16.11
64296;BMP280;51082;38.236;15.432;2023-12-20T05:33:47;101541.19;;;16.09
64296;BMP280;51082;38.236;15.432;2023-12-20T05:34:48;101546.44;;;16.09
64296;BMP280;51082;38.236;15.432;2023-12-20T05:35:50;101545.59;;;16.09
64296;BMP280;51082;38.236;15.432;2023-12-20T05:36:52;101547.25;;;16.10
64296;BMP280;51082;38.236;15.432;2023-12-20T05:37:54;101536.72;;;16.10
64296;BMP280;51082;38.236;15.432;2023-12-20T05:38:55;101534.88;;;16.10
64296;BMP280;51082;38.236;15.432;2023-12-20T05:39:58;101539.53;;;16.08
64296;BMP280;51082;38.236;15.432;2023-12-20T05:40:59;101538.09;;;16.12
64296;BMP280;51082;38.236;15.432;2023-12-20T05:42:01;101526.00;;;16.11
64296;BMP280;51082;38.236;15.432;2023-12-20T05:43:03;101532.25;;;16.10
64296;BMP280;51082;38.236;15.432;2023-12-20T05:44:06;101536.28;;;16.13
64296;BMP280;51082;38.236;15.432;2023-12-20T05:45:09;101526.59;;;16.13
64296;BMP280;51082;38.236;15.432;2023-12-20T05:46:11;101532.69;;;16.14
64296;BMP280;51082;38.236;15.432;2023-12-20T05:47:13;101523.97;;;16.13
64296;BMP280;51082;38.236;15.432;2023-12-20T05:48:15;101530.22;;;16.12